sensor_id;sensor_type;location;lat;lon;timestamp;P1;durP1;ratioP1;P2;durP2;ratioP2
59468;SDS011;45277;52.768;18.262;2022-10-31T00:00:55;167.50;;;45.72;;
59468;SDS011;45277;52.768;18.262;2022-10-31T00:02:41;104.32;;;42.42;;
59468;SDS011;45277;52.768;18.262;2022-10-31T00:04:12;259.45;;;50.53;;
59468;SDS011;45277;52.768;18.262;2022-10-31T00:05:45;185.35;;;48.22;;
59468;SDS011;45277;52.768;18.262;2022-10-31T00:07:17;146.75;;;44.88;;
59468;SDS011;45277;52.768;18.262;2022-10-31T00:08:53;117.93;;;46.38;;
59468;SDS011;45277;52.768;18.262;2022-10-31T00:10:28;127.10;;;48.80;;
59468;SDS011;45277;52.768;18.262;2022-10-31T00:11:59;194.65;;;54.67;;
59468;SDS011;45277;52.768;18.262;2022-10-31T00:13:31;174.07;;;53.10;;
59468;SDS011;45277;52.768;18.262;2022-10-31T00:15:02;197.13;;;54.42;;
59468;SDS011;45277;52.768;18.262;2022-10-31T00:16:34;376.40;;;65.50;;
59468;SDS011;45277;52.768;18.262;2022-10-31T00:18:06;141.95;;;52.58;;
59468;SDS011;45277;52.768;18.262;2022-10-31T00:19:38;160.98;;;50.05;;
59468;SDS011;45277;52.768;18.262;2022-10-31T00:21:09;127.75;;;51.03;;
59468;SDS011;45277;52.768;18.262;2022-10-31T00:22:41;122.85;;;48.15;;
59468;SDS011;45277;52.768;18.262;2022-10-31T00:24:12;90.18;;;46.00;;
59468;SDS011;45277;52.768;18.262;2022-10-31T00:25:43;90.70;;;46.63;;
59468;SDS011;45277;52.768;18.262;2022-10-31T00:27:15;93.00;;;48.47;;
59468;SDS011;45277;52.768;18.262;2022-10-31T00:28:46;145.20;;;48.75;;
59468;SDS011;45277;52.768;18.262;2022-10-31T00:30:18;151.88;;;51.08;;
59468;SDS011;45277;52.768;18.262;2022-10-31T00:31:49;93.65;;;48.03;;
59468;SDS011;45277;52.768;18.262;2022-10-31T00:33:21;121.80;;;50.50;;
59468;SDS011;45277;52.768;18.262;2022-10-31T00:34:52;143.45;;;49.28;;
59468;SDS011;45277;52.768;18.262;2022-10-31T00:36:23;122.47;;;45.83;;
59468;SDS011;45277;52.768;18.262;2022-10-31T00:37:54;72.55;;;41.38;;
59468;SDS011;45277;52.768;18.262;2022-10-31T00:39:26;103.10;;;46.03;;
59468;SDS011;45277;52.768;18.262;2022-10-31T00:40:57;197.20;;;50.40;;
59468;SDS011;45277;52.768;18.262;2022-10-31T00:42:28;115.72;;;45.35;;
59468;SDS011;45277;52.768;18.262;2022-10-31T00:43:59;85.03;;;43.13;;
59468;SDS011;45277;52.768;18.262;2022-10-31T00:45:31;122.43;;;44.65;;
59468;SDS011;45277;52.768;18.262;2022-10-31T00:47:02;163.85;;;47.00;;
59468;SDS011;45277;52.768;18.262;2022-10-31T00:48:33;271.77;;;47.92;;
59468;SDS011;45277;52.768;18.262;2022-10-31T00:50:05;119.68;;;44.65;;
59468;SDS011;45277;52.768;18.262;2022-10-31T00:51:36;119.68;;;42.38;;
59468;SDS011;45277;52.768;18.262;2022-10-31T00:53:08;87.22;;;40.50;;
59468;SDS011;45277;52.768;18.262;2022-10-31T00:54:39;132.55;;;43.00;;
59468;SDS011;45277;52.768;18.262;2022-10-31T00:56:10;116.82;;;42.92;;
59468;SDS011;45277;52.768;18.262;2022-10-31T00:57:42;293.30;;;50.97;;
59468;SDS011;45277;52.768;18.262;2022-10-31T00:59:13;79.68;;;42.15;;
59468;SDS011;45277;52.768;18.262;2022-10-31T01:00:46;88.07;;;40.67;;
59468;SDS011;45277;52.768;18.262;2022-10-31T01:03:57;93.47;;;39.67;;
59468;SDS011;45277;52.768;18.262;2022-10-31T01:05:28;64.32;;;38.35;;
59468;SDS011;45277;52.768;18.262;2022-10-31T01:06:59;180.45;;;45.92;;
59468;SDS011;45277;52.768;18.262;2022-10-31T01:08:31;104.95;;;44.03;;
59468;SDS011;45277;52.768;18.262;2022-10-31T01:10:03;89.07;;;43.92;;
59468;SDS011;45277;52.768;18.262;2022-10-31T01:11:36;122.07;;;46.88;;
59468;SDS011;45277;52.768;18.262;2022-10-31T01:13:07;178.63;;;51.22;;
59468;SDS011;45277;52.768;18.262;2022-10-31T01:14:41;99.40;;;45.72;;
59468;SDS011;45277;52.768;18.262;2022-10-31T01:16:15;93.57;;;44.92;;
59468;SDS011;45277;52.768;18.262;2022-10-31T01:17:48;222.18;;;51.97;;
59468;SDS011;45277;52.768;18.262;2022-10-31T01:19:20;84.35;;;44.90;;
59468;SDS011;45277;52.768;18.262;2022-10-31T01:21:01;151.63;;;48.95;;
59468;SDS011;45277;52.768;18.262;2022-10-31T01:22:37;127.78;;;46.92;;
59468;SDS011;45277;52.768;18.262;2022-10-31T01:24:08;101.15;;;44.42;;
59468;SDS011;45277;52.768;18.262;2022-10-31T01:25:40;88.32;;;42.03;;
59468;SDS011;45277;52.768;18.262;2022-10-31T01:27:12;276.92;;;50.38;;
59468;SDS011;45277;52.768;18.262;2022-10-31T01:28:48;136.38;;;45.65;;
59468;SDS011;45277;52.768;18.262;2022-10-31T01:30:21;149.80;;;45.78;;
59468;SDS011;45277;52.768;18.262;2022-10-31T01:31:53;120.65;;;44.78;;
59468;SDS011;45277;52.768;18.262;2022-10-31T01:33:24;82.47;;;41.88;;
59468;SDS011;45277;52.768;18.262;2022-10-31T01:34:55;95.35;;;42.63;;
59468;SDS011;45277;52.768;18.262;2022-10-31T01:36:27;220.57;;;49.10;;
59468;SDS011;45277;52.768;18.262;2022-10-31T01:38:01;85.90;;;42.42;;
59468;SDS011;45277;52.768;18.262;2022-10-31T01:39:32;164.70;;;46.72;;
59468;SDS011;45277;52.768;18.262;2022-10-31T01:41:03;78.72;;;41.22;;
59468;SDS011;45277;52.768;18.262;2022-10-31T01:42:34;84.82;;;39.67;;
59468;SDS011;45277;52.768;18.262;2022-10-31T01:47:41;67.30;;;36.88;;
59468;SDS011;45277;52.768;18.262;2022-10-31T01:49:29;188.63;;;44.47;;
59468;SDS011;45277;52.768;18.262;2022-10-31T01:51:07;228.38;;;47.03;;
59468;SDS011;45277;52.768;18.262;2022-10-31T01:52:43;100.78;;;41.47;;
59468;SDS011;45277;52.768;18.262;2022-10-31T01:54:17;239.35;;;48.50;;
59468;SDS011;45277;52.768;18.262;2022-10-31T01:55:51;123.85;;;43.70;;
59468;SDS011;45277;52.768;18.262;2022-10-31T01:57:23;115.10;;;44.15;;
59468;SDS011;45277;52.768;18.262;2022-10-31T01:58:55;136.23;;;45.65;;
59468;SDS011;45277;52.768;18.262;2022-10-31T02:00:29;80.93;;;44.03;;
59468;SDS011;45277;52.768;18.262;2022-10-31T02:02:01;188.40;;;48.00;;
59468;SDS011;45277;52.768;18.262;2022-10-31T02:03:32;207.27;;;47.63;;
59468;SDS011;45277;52.768;18.262;2022-10-31T02:05:05;118.35;;;43.97;;
59468;SDS011;45277;52.768;18.262;2022-10-31T02:08:27;269.20;;;51.20;;
59468;SDS011;45277;52.768;18.262;2022-10-31T02:10:00;94.90;;;43.38;;
59468;SDS011;45277;52.768;18.262;2022-10-31T02:11:32;257.45;;;48.25;;
59468;SDS011;45277;52.768;18.262;2022-10-31T02:13:07;87.47;;;42.47;;
59468;SDS011;45277;52.768;18.262;2022-10-31T02:14:38;159.88;;;44.45;;
59468;SDS011;45277;52.768;18.262;2022-10-31T02:16:10;122.13;;;41.63;;
59468;SDS011;45277;52.768;18.262;2022-10-31T02:17:42;151.52;;;44.35;;
59468;SDS011;45277;52.768;18.262;2022-10-31T02:19:14;184.43;;;45.42;;
59468;SDS011;45277;52.768;18.262;2022-10-31T02:24:40;147.13;;;43.53;;
59468;SDS011;45277;52.768;18.262;2022-10-31T02:28:47;129.32;;;41.60;;
59468;SDS011;45277;52.768;18.262;2022-10-31T02:30:49;294.02;;;49.17;;
59468;SDS011;45277;52.768;18.262;2022-10-31T02:32:37;160.48;;;42.17;;
59468;SDS011;45277;52.768;18.262;2022-10-31T02:36:28;178.25;;;43.90;;
59468;SDS011;45277;52.768;18.262;2022-10-31T02:38:46;178.80;;;43.22;;
59468;SDS011;45277;52.768;18.262;2022-10-31T02:40:30;322.25;;;48.08;;
59468;SDS011;45277;52.768;18.262;2022-10-31T02:42:05;120.70;;;42.55;;
59468;SDS011;45277;52.768;18.262;2022-10-31T02:47:06;299.42;;;49.90;;
59468;SDS011;45277;52.768;18.262;2022-10-31T02:48:43;288.27;;;48.50;;
59468;SDS011;45277;52.768;18.262;2022-10-31T02:50:20;154.63;;;41.05;;
59468;SDS011;45277;52.768;18.262;2022-10-31T02:51:55;201.73;;;45.25;;
59468;SDS011;45277;52.768;18.262;2022-10-31T02:53:26;158.05;;;44.22;;
59468;SDS011;45277;52.768;18.262;2022-10-31T02:55:44;368.40;;;50.33;;
59468;SDS011;45277;52.768;18.262;2022-10-31T02:57:02;198.98;;;44.70;;
59468;SDS011;45277;52.768;18.262;2022-10-31T02:58:38;115.90;;;42.20;;
59468;SDS011;45277;52.768;18.262;2022-10-31T03:00:15;194.23;;;45.22;;
59468;SDS011;45277;52.768;18.262;2022-10-31T03:01:50;140.13;;;43.13;;
59468;SDS011;45277;52.768;18.262;2022-10-31T03:04:11;110.65;;;40.90;;
59468;SDS011;45277;52.768;18.262;2022-10-31T03:09:40;245.98;;;46.45;;
59468;SDS011;45277;52.768;18.262;2022-10-31T03:11:13;222.05;;;45.33;;
59468;SDS011;45277;52.768;18.262;2022-10-31T03:12:53;329.25;;;50.47;;
59468;SDS011;45277;52.768;18.262;2022-10-31T03:14:43;321.13;;;47.47;;
59468;SDS011;45277;52.768;18.262;2022-10-31T03:16:29;189.20;;;40.55;;
59468;SDS011;45277;52.768;18.262;2022-10-31T03:18:21;298.85;;;47.05;;
59468;SDS011;45277;52.768;18.262;2022-10-31T03:20:04;211.77;;;43.33;;
59468;SDS011;45277;52.768;18.262;2022-10-31T03:23:15;191.02;;;41.65;;
59468;SDS011;45277;52.768;18.262;2022-10-31T03:24:48;346.83;;;48.38;;
59468;SDS011;45277;52.768;18.262;2022-10-31T03:26:21;190.23;;;42.15;;
59468;SDS011;45277;52.768;18.262;2022-10-31T03:27:54;298.85;;;46.22;;
59468;SDS011;45277;52.768;18.262;2022-10-31T03:29:28;283.30;;;47.95;;
59468;SDS011;45277;52.768;18.262;2022-10-31T03:31:04;152.48;;;39.88;;
59468;SDS011;45277;52.768;18.262;2022-10-31T03:32:44;207.80;;;41.72;;
59468;SDS011;45277;52.768;18.262;2022-10-31T03:34:19;193.30;;;42.22;;
59468;SDS011;45277;52.768;18.262;2022-10-31T03:35:51;319.48;;;48.88;;
59468;SDS011;45277;52.768;18.262;2022-10-31T03:37:25;250.73;;;46.80;;
59468;SDS011;45277;52.768;18.262;2022-10-31T03:39:00;233.45;;;44.45;;
59468;SDS011;45277;52.768;18.262;2022-10-31T03:40:35;251.60;;;45.42;;
59468;SDS011;45277;52.768;18.262;2022-10-31T03:42:10;244.30;;;46.55;;
59468;SDS011;45277;52.768;18.262;2022-10-31T03:44:19;103.55;;;37.17;;
59468;SDS011;45277;52.768;18.262;2022-10-31T03:45:45;200.88;;;42.88;;
59468;SDS011;45277;52.768;18.262;2022-10-31T03:47:17;167.43;;;41.67;;
59468;SDS011;45277;52.768;18.262;2022-10-31T03:48:49;338.25;;;50.28;;
59468;SDS011;45277;52.768;18.262;2022-10-31T03:50:20;154.80;;;43.10;;
59468;SDS011;45277;52.768;18.262;2022-10-31T03:54:02;148.77;;;41.25;;
59468;SDS011;45277;52.768;18.262;2022-10-31T03:55:51;146.15;;;40.33;;
59468;SDS011;45277;52.768;18.262;2022-10-31T03:57:29;157.27;;;42.83;;
59468;SDS011;45277;52.768;18.262;2022-10-31T03:59:20;157.73;;;41.83;;
59468;SDS011;45277;52.768;18.262;2022-10-31T04:01:06;229.80;;;43.20;;
59468;SDS011;45277;52.768;18.262;2022-10-31T04:02:59;336.85;;;47.00;;
59468;SDS011;45277;52.768;18.262;2022-10-31T04:04:31;221.35;;;42.67;;
59468;SDS011;45277;52.768;18.262;2022-10-31T04:06:05;209.68;;;44.95;;
59468;SDS011;45277;52.768;18.262;2022-10-31T04:07:41;132.57;;;42.28;;
59468;SDS011;45277;52.768;18.262;2022-10-31T04:09:18;141.25;;;42.58;;
59468;SDS011;45277;52.768;18.262;2022-10-31T04:10:50;218.70;;;44.47;;
59468;SDS011;45277;52.768;18.262;2022-10-31T04:12:23;130.60;;;43.25;;
59468;SDS011;45277;52.768;18.262;2022-10-31T04:13:55;97.38;;;41.42;;
59468;SDS011;45277;52.768;18.262;2022-10-31T04:15:29;174.90;;;42.33;;
59468;SDS011;45277;52.768;18.262;2022-10-31T04:17:03;145.60;;;43.78;;
59468;SDS011;45277;52.768;18.262;2022-10-31T04:18:39;197.70;;;43.58;;
59468;SDS011;45277;52.768;18.262;2022-10-31T04:20:11;102.38;;;41.00;;
59468;SDS011;45277;52.768;18.262;2022-10-31T04:21:46;117.68;;;40.45;;
59468;SDS011;45277;52.768;18.262;2022-10-31T04:23:22;212.10;;;44.05;;
59468;SDS011;45277;52.768;18.262;2022-10-31T04:24:55;106.28;;;39.97;;
59468;SDS011;45277;52.768;18.262;2022-10-31T04:26:26;250.30;;;45.80;;
59468;SDS011;45277;52.768;18.262;2022-10-31T04:27:57;219.75;;;43.17;;
59468;SDS011;45277;52.768;18.262;2022-10-31T04:29:29;182.40;;;44.72;;
59468;SDS011;45277;52.768;18.262;2022-10-31T04:31:00;151.55;;;43.08;;
59468;SDS011;45277;52.768;18.262;2022-10-31T04:32:31;158.13;;;44.42;;
59468;SDS011;45277;52.768;18.262;2022-10-31T04:34:02;218.75;;;46.05;;
59468;SDS011;45277;52.768;18.262;2022-10-31T04:35:34;119.68;;;44.72;;
59468;SDS011;45277;52.768;18.262;2022-10-31T04:37:05;261.63;;;49.67;;
59468;SDS011;45277;52.768;18.262;2022-10-31T04:38:36;181.38;;;45.50;;
59468;SDS011;45277;52.768;18.262;2022-10-31T04:40:08;137.77;;;43.88;;
59468;SDS011;45277;52.768;18.262;2022-10-31T04:41:39;165.00;;;44.80;;
59468;SDS011;45277;52.768;18.262;2022-10-31T04:43:11;224.73;;;47.42;;
59468;SDS011;45277;52.768;18.262;2022-10-31T04:44:42;216.25;;;47.50;;
59468;SDS011;45277;52.768;18.262;2022-10-31T04:46:13;265.67;;;48.40;;
59468;SDS011;45277;52.768;18.262;2022-10-31T04:47:45;280.27;;;50.28;;
59468;SDS011;45277;52.768;18.262;2022-10-31T04:49:16;241.70;;;48.28;;
59468;SDS011;45277;52.768;18.262;2022-10-31T04:50:47;313.60;;;50.50;;
59468;SDS011;45277;52.768;18.262;2022-10-31T04:52:19;206.40;;;47.60;;
59468;SDS011;45277;52.768;18.262;2022-10-31T04:53:50;177.98;;;45.42;;
59468;SDS011;45277;52.768;18.262;2022-10-31T04:55:21;271.20;;;50.55;;
59468;SDS011;45277;52.768;18.262;2022-10-31T04:56:53;137.48;;;44.03;;
59468;SDS011;45277;52.768;18.262;2022-10-31T04:58:24;120.32;;;42.88;;
59468;SDS011;45277;52.768;18.262;2022-10-31T04:59:55;193.32;;;45.00;;
59468;SDS011;45277;52.768;18.262;2022-10-31T05:01:26;242.60;;;47.25;;
59468;SDS011;45277;52.768;18.262;2022-10-31T05:02:58;162.15;;;44.65;;
59468;SDS011;45277;52.768;18.262;2022-10-31T05:04:29;206.20;;;46.55;;
59468;SDS011;45277;52.768;18.262;2022-10-31T05:06:00;205.48;;;46.70;;
59468;SDS011;45277;52.768;18.262;2022-10-31T05:07:32;128.23;;;42.40;;
59468;SDS011;45277;52.768;18.262;2022-10-31T05:09:03;176.15;;;43.03;;
59468;SDS011;45277;52.768;18.262;2022-10-31T05:10:34;181.32;;;44.75;;
59468;SDS011;45277;52.768;18.262;2022-10-31T05:12:06;131.50;;;41.45;;
59468;SDS011;45277;52.768;18.262;2022-10-31T05:13:37;118.70;;;42.08;;
59468;SDS011;45277;52.768;18.262;2022-10-31T05:15:09;181.00;;;44.10;;
59468;SDS011;45277;52.768;18.262;2022-10-31T05:16:40;188.18;;;45.55;;
59468;SDS011;45277;52.768;18.262;2022-10-31T05:18:11;192.57;;;45.67;;
59468;SDS011;45277;52.768;18.262;2022-10-31T05:19:42;163.25;;;42.67;;
59468;SDS011;45277;52.768;18.262;2022-10-31T05:21:13;80.13;;;40.55;;
59468;SDS011;45277;52.768;18.262;2022-10-31T05:22:45;81.70;;;40.10;;
59468;SDS011;45277;52.768;18.262;2022-10-31T05:24:18;143.50;;;42.85;;
59468;SDS011;45277;52.768;18.262;2022-10-31T05:25:52;195.60;;;46.30;;
59468;SDS011;45277;52.768;18.262;2022-10-31T05:27:23;170.52;;;44.63;;
59468;SDS011;45277;52.768;18.262;2022-10-31T05:28:55;114.03;;;40.78;;
59468;SDS011;45277;52.768;18.262;2022-10-31T05:30:28;67.13;;;37.45;;
59468;SDS011;45277;52.768;18.262;2022-10-31T05:32:01;155.02;;;40.75;;
59468;SDS011;45277;52.768;18.262;2022-10-31T05:33:32;267.80;;;46.85;;
59468;SDS011;45277;52.768;18.262;2022-10-31T05:35:03;118.70;;;39.05;;
59468;SDS011;45277;52.768;18.262;2022-10-31T05:36:35;217.77;;;42.55;;
59468;SDS011;45277;52.768;18.262;2022-10-31T05:38:07;125.53;;;37.47;;
59468;SDS011;45277;52.768;18.262;2022-10-31T05:39:38;291.85;;;45.10;;
59468;SDS011;45277;52.768;18.262;2022-10-31T05:41:09;324.77;;;47.40;;
59468;SDS011;45277;52.768;18.262;2022-10-31T05:42:41;220.93;;;42.85;;
59468;SDS011;45277;52.768;18.262;2022-10-31T05:44:13;297.25;;;45.70;;
59468;SDS011;45277;52.768;18.262;2022-10-31T05:45:45;282.17;;;43.92;;
59468;SDS011;45277;52.768;18.262;2022-10-31T05:47:16;226.05;;;43.08;;
59468;SDS011;45277;52.768;18.262;2022-10-31T05:48:47;162.15;;;39.47;;
59468;SDS011;45277;52.768;18.262;2022-10-31T05:50:18;260.77;;;44.63;;
59468;SDS011;45277;52.768;18.262;2022-10-31T05:51:50;241.88;;;41.42;;
59468;SDS011;45277;52.768;18.262;2022-10-31T05:53:22;120.15;;;38.33;;
59468;SDS011;45277;52.768;18.262;2022-10-31T05:54:54;126.82;;;39.45;;
59468;SDS011;45277;52.768;18.262;2022-10-31T05:56:25;107.03;;;38.42;;
59468;SDS011;45277;52.768;18.262;2022-10-31T05:57:56;318.20;;;45.63;;
59468;SDS011;45277;52.768;18.262;2022-10-31T05:59:28;320.85;;;47.45;;
59468;SDS011;45277;52.768;18.262;2022-10-31T06:00:59;147.43;;;41.28;;
59468;SDS011;45277;52.768;18.262;2022-10-31T06:02:31;134.60;;;40.70;;
59468;SDS011;45277;52.768;18.262;2022-10-31T06:04:04;206.85;;;42.83;;
59468;SDS011;45277;52.768;18.262;2022-10-31T06:05:36;233.38;;;43.92;;
59468;SDS011;45277;52.768;18.262;2022-10-31T06:07:07;252.20;;;43.40;;
59468;SDS011;45277;52.768;18.262;2022-10-31T06:08:39;168.05;;;41.88;;
59468;SDS011;45277;52.768;18.262;2022-10-31T06:10:11;151.07;;;40.42;;
59468;SDS011;45277;52.768;18.262;2022-10-31T06:11:42;137.95;;;38.92;;
59468;SDS011;45277;52.768;18.262;2022-10-31T06:13:14;163.32;;;40.17;;
59468;SDS011;45277;52.768;18.262;2022-10-31T06:14:45;132.73;;;39.05;;
59468;SDS011;45277;52.768;18.262;2022-10-31T06:16:16;267.10;;;44.10;;
59468;SDS011;45277;52.768;18.262;2022-10-31T06:17:56;237.73;;;42.75;;
59468;SDS011;45277;52.768;18.262;2022-10-31T06:19:36;169.82;;;42.30;;
59468;SDS011;45277;52.768;18.262;2022-10-31T06:21:07;164.18;;;39.20;;
59468;SDS011;45277;52.768;18.262;2022-10-31T06:22:39;182.23;;;40.40;;
59468;SDS011;45277;52.768;18.262;2022-10-31T06:24:10;150.77;;;40.25;;
59468;SDS011;45277;52.768;18.262;2022-10-31T06:25:42;158.77;;;39.72;;
59468;SDS011;45277;52.768;18.262;2022-10-31T06:27:13;222.10;;;44.28;;
59468;SDS011;45277;52.768;18.262;2022-10-31T06:28:44;140.73;;;38.85;;
59468;SDS011;45277;52.768;18.262;2022-10-31T06:30:16;112.15;;;38.00;;
59468;SDS011;45277;52.768;18.262;2022-10-31T06:31:47;137.38;;;39.13;;
59468;SDS011;45277;52.768;18.262;2022-10-31T06:33:21;326.88;;;50.53;;
59468;SDS011;45277;52.768;18.262;2022-10-31T06:34:52;226.50;;;42.30;;
59468;SDS011;45277;52.768;18.262;2022-10-31T06:36:24;251.30;;;43.10;;
59468;SDS011;45277;52.768;18.262;2022-10-31T06:37:57;232.25;;;41.00;;
59468;SDS011;45277;52.768;18.262;2022-10-31T06:39:28;605.47;;;57.85;;
59468;SDS011;45277;52.768;18.262;2022-10-31T06:41:03;417.48;;;50.08;;
59468;SDS011;45277;52.768;18.262;2022-10-31T06:42:37;348.65;;;47.80;;
59468;SDS011;45277;52.768;18.262;2022-10-31T06:44:08;493.73;;;51.97;;
59468;SDS011;45277;52.768;18.262;2022-10-31T06:45:40;474.73;;;51.90;;
59468;SDS011;45277;52.768;18.262;2022-10-31T06:47:11;588.50;;;55.95;;
59468;SDS011;45277;52.768;18.262;2022-10-31T06:48:43;739.33;;;63.65;;
59468;SDS011;45277;52.768;18.262;2022-10-31T06:50:14;704.63;;;66.15;;
59468;SDS011;45277;52.768;18.262;2022-10-31T06:51:48;607.95;;;57.53;;
59468;SDS011;45277;52.768;18.262;2022-10-31T06:53:20;375.42;;;47.47;;
59468;SDS011;45277;52.768;18.262;2022-10-31T06:54:52;423.92;;;49.95;;
59468;SDS011;45277;52.768;18.262;2022-10-31T06:56:23;410.08;;;51.33;;
59468;SDS011;45277;52.768;18.262;2022-10-31T06:57:55;416.92;;;52.47;;
59468;SDS011;45277;52.768;18.262;2022-10-31T06:59:28;509.13;;;52.17;;
59468;SDS011;45277;52.768;18.262;2022-10-31T07:01:00;514.20;;;53.10;;
59468;SDS011;45277;52.768;18.262;2022-10-31T07:02:31;280.55;;;44.80;;
59468;SDS011;45277;52.768;18.262;2022-10-31T07:04:03;393.02;;;48.13;;
59468;SDS011;45277;52.768;18.262;2022-10-31T07:05:34;364.23;;;50.05;;
59468;SDS011;45277;52.768;18.262;2022-10-31T07:07:05;393.92;;;47.95;;
59468;SDS011;45277;52.768;18.262;2022-10-31T07:08:37;599.70;;;54.50;;
59468;SDS011;45277;52.768;18.262;2022-10-31T07:10:08;382.90;;;49.08;;
59468;SDS011;45277;52.768;18.262;2022-10-31T07:11:39;398.73;;;47.35;;
59468;SDS011;45277;52.768;18.262;2022-10-31T07:13:12;464.10;;;52.92;;
59468;SDS011;45277;52.768;18.262;2022-10-31T07:14:44;386.98;;;45.08;;
59468;SDS011;45277;52.768;18.262;2022-10-31T07:16:15;367.30;;;48.33;;
59468;SDS011;45277;52.768;18.262;2022-10-31T07:17:47;245.93;;;42.20;;
59468;SDS011;45277;52.768;18.262;2022-10-31T07:19:18;300.80;;;42.03;;
59468;SDS011;45277;52.768;18.262;2022-10-31T07:20:51;315.50;;;46.28;;
59468;SDS011;45277;52.768;18.262;2022-10-31T07:22:22;237.27;;;42.78;;
59468;SDS011;45277;52.768;18.262;2022-10-31T07:23:54;288.60;;;46.47;;
59468;SDS011;45277;52.768;18.262;2022-10-31T07:25:26;360.65;;;47.00;;
59468;SDS011;45277;52.768;18.262;2022-10-31T07:26:57;524.90;;;54.78;;
59468;SDS011;45277;52.768;18.262;2022-10-31T07:28:28;536.45;;;56.28;;
59468;SDS011;45277;52.768;18.262;2022-10-31T07:30:00;320.60;;;47.38;;
59468;SDS011;45277;52.768;18.262;2022-10-31T07:31:31;361.25;;;50.38;;
59468;SDS011;45277;52.768;18.262;2022-10-31T07:33:02;482.60;;;56.53;;
59468;SDS011;45277;52.768;18.262;2022-10-31T07:34:34;631.50;;;61.42;;
59468;SDS011;45277;52.768;18.262;2022-10-31T07:36:05;500.38;;;51.92;;
59468;SDS011;45277;52.768;18.262;2022-10-31T07:37:37;549.58;;;56.10;;
59468;SDS011;45277;52.768;18.262;2022-10-31T07:39:09;441.33;;;51.05;;
59468;SDS011;45277;52.768;18.262;2022-10-31T07:40:41;413.80;;;51.15;;
59468;SDS011;45277;52.768;18.262;2022-10-31T07:42:12;451.23;;;49.75;;
59468;SDS011;45277;52.768;18.262;2022-10-31T07:43:44;273.95;;;42.97;;
59468;SDS011;45277;52.768;18.262;2022-10-31T07:45:16;352.90;;;46.00;;
59468;SDS011;45277;52.768;18.262;2022-10-31T07:46:49;283.50;;;45.80;;
59468;SDS011;45277;52.768;18.262;2022-10-31T07:48:20;233.90;;;43.47;;
59468;SDS011;45277;52.768;18.262;2022-10-31T07:49:52;267.95;;;42.97;;
59468;SDS011;45277;52.768;18.262;2022-10-31T07:51:23;279.02;;;46.17;;
59468;SDS011;45277;52.768;18.262;2022-10-31T07:53:01;234.95;;;44.97;;
59468;SDS011;45277;52.768;18.262;2022-10-31T07:54:40;433.23;;;52.17;;
59468;SDS011;45277;52.768;18.262;2022-10-31T07:56:11;240.35;;;47.60;;
59468;SDS011;45277;52.768;18.262;2022-10-31T07:57:43;259.35;;;49.80;;
59468;SDS011;45277;52.768;18.262;2022-10-31T07:59:14;279.02;;;52.55;;
59468;SDS011;45277;52.768;18.262;2022-10-31T08:00:46;417.08;;;56.47;;
59468;SDS011;45277;52.768;18.262;2022-10-31T08:02:18;356.92;;;57.05;;
59468;SDS011;45277;52.768;18.262;2022-10-31T08:03:49;437.58;;;61.67;;
59468;SDS011;45277;52.768;18.262;2022-10-31T08:05:20;456.08;;;64.82;;
59468;SDS011;45277;52.768;18.262;2022-10-31T08:06:52;331.10;;;70.60;;
59468;SDS011;45277;52.768;18.262;2022-10-31T08:08:23;406.10;;;75.28;;
59468;SDS011;45277;52.768;18.262;2022-10-31T08:09:55;528.88;;;85.55;;
59468;SDS011;45277;52.768;18.262;2022-10-31T08:11:27;682.40;;;91.68;;
59468;SDS011;45277;52.768;18.262;2022-10-31T08:13:05;522.92;;;87.30;;
59468;SDS011;45277;52.768;18.262;2022-10-31T08:14:38;525.75;;;80.72;;
59468;SDS011;45277;52.768;18.262;2022-10-31T08:16:10;268.83;;;63.30;;
59468;SDS011;45277;52.768;18.262;2022-10-31T08:17:41;342.48;;;58.63;;
59468;SDS011;45277;52.768;18.262;2022-10-31T08:19:12;239.13;;;49.72;;
59468;SDS011;45277;52.768;18.262;2022-10-31T08:20:44;323.60;;;55.83;;
59468;SDS011;45277;52.768;18.262;2022-10-31T08:22:15;298.38;;;54.92;;
59468;SDS011;45277;52.768;18.262;2022-10-31T08:23:46;335.20;;;62.17;;
59468;SDS011;45277;52.768;18.262;2022-10-31T08:25:18;198.07;;;58.58;;
59468;SDS011;45277;52.768;18.262;2022-10-31T08:26:49;309.13;;;63.17;;
59468;SDS011;45277;52.768;18.262;2022-10-31T08:28:21;281.95;;;60.17;;
59468;SDS011;45277;52.768;18.262;2022-10-31T08:29:52;250.05;;;61.13;;
59468;SDS011;45277;52.768;18.262;2022-10-31T08:31:23;450.17;;;69.75;;
59468;SDS011;45277;52.768;18.262;2022-10-31T08:34:35;286.30;;;68.43;;
59468;SDS011;45277;52.768;18.262;2022-10-31T08:36:06;260.25;;;66.00;;
59468;SDS011;45277;52.768;18.262;2022-10-31T08:37:37;224.55;;;64.80;;
59468;SDS011;45277;52.768;18.262;2022-10-31T08:39:09;354.73;;;66.28;;
59468;SDS011;45277;52.768;18.262;2022-10-31T08:40:41;282.17;;;59.65;;
59468;SDS011;45277;52.768;18.262;2022-10-31T08:42:12;219.95;;;60.35;;
59468;SDS011;45277;52.768;18.262;2022-10-31T08:43:44;363.13;;;61.08;;
59468;SDS011;45277;52.768;18.262;2022-10-31T08:45:15;221.40;;;61.10;;
59468;SDS011;45277;52.768;18.262;2022-10-31T08:46:47;433.42;;;64.72;;
59468;SDS011;45277;52.768;18.262;2022-10-31T08:48:18;316.65;;;59.17;;
59468;SDS011;45277;52.768;18.262;2022-10-31T08:49:49;259.50;;;58.88;;
59468;SDS011;45277;52.768;18.262;2022-10-31T08:51:21;164.27;;;56.10;;
59468;SDS011;45277;52.768;18.262;2022-10-31T08:52:52;265.13;;;55.72;;
59468;SDS011;45277;52.768;18.262;2022-10-31T08:54:23;225.75;;;53.75;;
59468;SDS011;45277;52.768;18.262;2022-10-31T08:55:55;188.52;;;48.22;;
59468;SDS011;45277;52.768;18.262;2022-10-31T08:57:26;189.60;;;46.25;;
59468;SDS011;45277;52.768;18.262;2022-10-31T08:58:58;137.80;;;43.17;;
59468;SDS011;45277;52.768;18.262;2022-10-31T09:00:29;160.55;;;42.47;;
59468;SDS011;45277;52.768;18.262;2022-10-31T09:02:01;200.85;;;44.17;;
59468;SDS011;45277;52.768;18.262;2022-10-31T09:03:32;127.80;;;39.15;;
59468;SDS011;45277;52.768;18.262;2022-10-31T09:05:04;106.28;;;36.67;;
59468;SDS011;45277;52.768;18.262;2022-10-31T09:06:35;91.10;;;35.58;;
59468;SDS011;45277;52.768;18.262;2022-10-31T09:08:07;149.90;;;38.95;;
59468;SDS011;45277;52.768;18.262;2022-10-31T09:09:38;158.35;;;40.15;;
59468;SDS011;45277;52.768;18.262;2022-10-31T09:11:09;129.13;;;37.65;;
59468;SDS011;45277;52.768;18.262;2022-10-31T09:12:41;109.85;;;36.97;;
59468;SDS011;45277;52.768;18.262;2022-10-31T09:14:12;111.75;;;36.42;;
59468;SDS011;45277;52.768;18.262;2022-10-31T09:15:44;96.10;;;33.17;;
59468;SDS011;45277;52.768;18.262;2022-10-31T09:17:17;66.15;;;32.13;;
59468;SDS011;45277;52.768;18.262;2022-10-31T09:18:48;115.72;;;35.42;;
59468;SDS011;45277;52.768;18.262;2022-10-31T09:20:20;125.05;;;35.00;;